sensor_id;sensor_type;location;lat;lon;timestamp;P1;durP1;ratioP1;P2;durP2;ratioP2
36551;SDS011;22559;54.176;12.102;2023-11-22T00:01:10;1.60;;;1.50;;
36551;SDS011;22559;54.176;12.102;2023-11-22T00:03:36;1.97;;;1.40;;
36551;SDS011;22559;54.176;12.102;2023-11-22T00:06:01;1.20;;;1.20;;
36551;SDS011;22559;54.176;12.102;2023-11-22T00:08:27;1.70;;;1.60;;
36551;SDS011;22559;54.176;12.102;2023-11-22T00:10:54;1.37;;;1.37;;
36551;SDS011;22559;54.176;12.102;2023-11-22T00:13:20;1.30;;;1.30;;
36551;SDS011;22559;54.176;12.102;2023-11-22T00:15:45;1.60;;;1.50;;
36551;SDS011;22559;54.176;12.102;2023-11-22T00:18:11;1.80;;;1.40;;
36551;SDS011;22559;54.176;12.102;2023-11-22T00:20:36;1.60;;;1.30;;
36551;SDS011;22559;54.176;12.102;2023-11-22T00:23:02;1.57;;;1.47;;
36551;SDS011;22559;54.176;12.102;2023-11-22T00:25:30;1.20;;;1.20;;
36551;SDS011;22559;54.176;12.102;2023-11-22T00:27:57;1.30;;;1.30;;
36551;SDS011;22559;54.176;12.102;2023-11-22T00:30:23;1.40;;;1.40;;
36551;SDS011;22559;54.176;12.102;2023-11-22T00:32:48;1.60;;;1.50;;
36551;SDS011;22559;54.176;12.102;2023-11-22T00:35:14;1.37;;;1.30;;
36551;SDS011;22559;54.176;12.102;2023-11-22T00:37:40;1.53;;;1.43;;
36551;SDS011;22559;54.176;12.102;2023-11-22T00:40:06;1.47;;;1.47;;
36551;SDS011;22559;54.176;12.102;2023-11-22T00:42:41;1.60;;;1.50;;
36551;SDS011;22559;54.176;12.102;2023-11-22T00:45:09;2.10;;;1.30;;
36551;SDS011;22559;54.176;12.102;2023-11-22T00:47:36;1.87;;;1.77;;
36551;SDS011;22559;54.176;12.102;2023-11-22T00:50:02;2.20;;;1.70;;
36551;SDS011;22559;54.176;12.102;2023-11-22T00:52:29;2.63;;;1.60;;
36551;SDS011;22559;54.176;12.102;2023-11-22T00:54:57;1.63;;;1.53;;
36551;SDS011;22559;54.176;12.102;2023-11-22T00:57:23;2.00;;;1.90;;
36551;SDS011;22559;54.176;12.102;2023-11-22T00:59:49;2.10;;;2.00;;
36551;SDS011;22559;54.176;12.102;2023-11-22T01:02:15;1.73;;;1.67;;
36551;SDS011;22559;54.176;12.102;2023-11-22T01:04:41;1.60;;;1.60;;
36551;SDS011;22559;54.176;12.102;2023-11-22T01:07:06;3.10;;;2.10;;
36551;SDS011;22559;54.176;12.102;2023-11-22T01:09:34;2.00;;;1.90;;
36551;SDS011;22559;54.176;12.102;2023-11-22T01:12:00;1.93;;;1.83;;
36551;SDS011;22559;54.176;12.102;2023-11-22T01:14:26;2.03;;;1.93;;
36551;SDS011;22559;54.176;12.102;2023-11-22T01:16:53;2.10;;;1.90;;
36551;SDS011;22559;54.176;12.102;2023-11-22T01:19:21;2.37;;;2.00;;
36551;SDS011;22559;54.176;12.102;2023-11-22T01:21:47;2.63;;;2.30;;
36551;SDS011;22559;54.176;12.102;2023-11-22T01:24:13;2.20;;;2.10;;
36551;SDS011;22559;54.176;12.102;2023-11-22T01:26:38;2.60;;;1.87;;
36551;SDS011;22559;54.176;12.102;2023-11-22T01:29:04;1.87;;;1.77;;
36551;SDS011;22559;54.176;12.102;2023-11-22T01:31:30;1.77;;;1.70;;
36551;SDS011;22559;54.176;12.102;2023-11-22T01:33:57;2.53;;;1.90;;
36551;SDS011;22559;54.176;12.102;2023-11-22T01:36:23;1.80;;;1.70;;
36551;SDS011;22559;54.176;12.102;2023-11-22T01:38:50;1.70;;;1.60;;
36551;SDS011;22559;54.176;12.102;2023-11-22T01:41:17;1.40;;;1.40;;
36551;SDS011;22559;54.176;12.102;2023-11-22T01:43:43;1.70;;;1.60;;
36551;SDS011;22559;54.176;12.102;2023-11-22T01:46:08;1.30;;;1.30;;
36551;SDS011;22559;54.176;12.102;2023-11-22T01:48:35;1.40;;;1.40;;
36551;SDS011;22559;54.176;12.102;2023-11-22T01:51:04;1.77;;;1.67;;
36551;SDS011;22559;54.176;12.102;2023-11-22T01:53:30;1.87;;;1.60;;
36551;SDS011;22559;54.176;12.102;2023-11-22T01:55:57;1.60;;;1.60;;
36551;SDS011;22559;54.176;12.102;2023-11-22T01:58:23;1.83;;;1.50;;
36551;SDS011;22559;54.176;12.102;2023-11-22T02:00:52;1.80;;;1.70;;
36551;SDS011;22559;54.176;12.102;2023-11-22T02:03:18;1.80;;;1.70;;
36551;SDS011;22559;54.176;12.102;2023-11-22T02:05:44;1.97;;;1.87;;
36551;SDS011;22559;54.176;12.102;2023-11-22T02:08:10;3.10;;;1.90;;
36551;SDS011;22559;54.176;12.102;2023-11-22T02:10:37;2.30;;;1.87;;
36551;SDS011;22559;54.176;12.102;2023-11-22T02:13:03;2.10;;;1.70;;
36551;SDS011;22559;54.176;12.102;2023-11-22T02:15:32;1.90;;;1.80;;
36551;SDS011;22559;54.176;12.102;2023-11-22T02:18:04;2.03;;;1.93;;
36551;SDS011;22559;54.176;12.102;2023-11-22T02:20:31;1.87;;;1.87;;
36551;SDS011;22559;54.176;12.102;2023-11-22T02:23:01;2.97;;;1.90;;
36551;SDS011;22559;54.176;12.102;2023-11-22T02:25:32;1.77;;;1.67;;
36551;SDS011;22559;54.176;12.102;2023-11-22T02:27:58;2.03;;;1.70;;
36551;SDS011;22559;54.176;12.102;2023-11-22T02:30:24;2.23;;;2.07;;
36551;SDS011;22559;54.176;12.102;2023-11-22T02:32:50;1.67;;;1.67;;
36551;SDS011;22559;54.176;12.102;2023-11-22T02:35:16;1.90;;;1.80;;
36551;SDS011;22559;54.176;12.102;2023-11-22T02:37:43;1.93;;;1.83;;
36551;SDS011;22559;54.176;12.102;2023-11-22T02:40:20;2.50;;;1.80;;
36551;SDS011;22559;54.176;12.102;2023-11-22T02:42:47;2.00;;;1.90;;
36551;SDS011;22559;54.176;12.102;2023-11-22T02:45:17;2.57;;;2.37;;
36551;SDS011;22559;54.176;12.102;2023-11-22T02:47:43;2.10;;;2.00;;
36551;SDS011;22559;54.176;12.102;2023-11-22T02:50:09;1.80;;;1.70;;
36551;SDS011;22559;54.176;12.102;2023-11-22T02:52:36;2.27;;;1.83;;
36551;SDS011;22559;54.176;12.102;2023-11-22T02:55:02;1.80;;;1.70;;
36551;SDS011;22559;54.176;12.102;2023-11-22T02:57:30;2.10;;;1.90;;
36551;SDS011;22559;54.176;12.102;2023-11-22T02:59:56;2.40;;;2.20;;
36551;SDS011;22559;54.176;12.102;2023-11-22T03:02:22;2.53;;;2.00;;
36551;SDS011;22559;54.176;12.102;2023-11-22T03:04:50;2.37;;;2.10;;
36551;SDS011;22559;54.176;12.102;2023-11-22T03:07:17;4.37;;;2.40;;
36551;SDS011;22559;54.176;12.102;2023-11-22T03:09:42;2.07;;;1.97;;
36551;SDS011;22559;54.176;12.102;2023-11-22T03:12:10;2.07;;;1.97;;
36551;SDS011;22559;54.176;12.102;2023-11-22T03:14:38;2.23;;;2.13;;
36551;SDS011;22559;54.176;12.102;2023-11-22T03:17:04;1.90;;;1.80;;
36551;SDS011;22559;54.176;12.102;2023-11-22T03:19:30;1.60;;;1.50;;
36551;SDS011;22559;54.176;12.102;2023-11-22T03:21:58;2.57;;;2.00;;
36551;SDS011;22559;54.176;12.102;2023-11-22T03:24:25;1.67;;;1.60;;
36551;SDS011;22559;54.176;12.102;2023-11-22T03:26:50;1.77;;;1.70;;
36551;SDS011;22559;54.176;12.102;2023-11-22T03:29:17;2.53;;;2.33;;
36551;SDS011;22559;54.176;12.102;2023-11-22T03:31:43;1.80;;;1.70;;
36551;SDS011;22559;54.176;12.102;2023-11-22T03:34:09;1.77;;;1.70;;
36551;SDS011;22559;54.176;12.102;2023-11-22T03:36:35;1.90;;;1.80;;
36551;SDS011;22559;54.176;12.102;2023-11-22T03:39:01;1.90;;;1.80;;
36551;SDS011;22559;54.176;12.102;2023-11-22T03:41:27;1.90;;;1.80;;
36551;SDS011;22559;54.176;12.102;2023-11-22T03:43:53;2.10;;;1.83;;
36551;SDS011;22559;54.176;12.102;2023-11-22T03:46:19;2.30;;;2.20;;
36551;SDS011;22559;54.176;12.102;2023-11-22T03:48:44;2.00;;;1.90;;
36551;SDS011;22559;54.176;12.102;2023-11-22T03:51:10;2.40;;;2.20;;
36551;SDS011;22559;54.176;12.102;2023-11-22T03:53:36;2.00;;;1.90;;
36551;SDS011;22559;54.176;12.102;2023-11-22T03:56:02;2.63;;;2.43;;
36551;SDS011;22559;54.176;12.102;2023-11-22T03:58:28;2.30;;;2.20;;
36551;SDS011;22559;54.176;12.102;2023-11-22T04:00:53;2.40;;;2.20;;
36551;SDS011;22559;54.176;12.102;2023-11-22T04:03:20;2.30;;;2.20;;
36551;SDS011;22559;54.176;12.102;2023-11-22T04:05:45;2.87;;;2.20;;
36551;SDS011;22559;54.176;12.102;2023-11-22T04:08:11;2.73;;;2.53;;
36551;SDS011;22559;54.176;12.102;2023-11-22T04:10:37;2.73;;;2.53;;
36551;SDS011;22559;54.176;12.102;2023-11-22T04:13:02;2.70;;;2.50;;
36551;SDS011;22559;54.176;12.102;2023-11-22T04:15:28;2.73;;;2.53;;
36551;SDS011;22559;54.176;12.102;2023-11-22T04:17:53;2.53;;;2.43;;
36551;SDS011;22559;54.176;12.102;2023-11-22T04:20:20;3.07;;;2.80;;
36551;SDS011;22559;54.176;12.102;2023-11-22T04:22:45;2.70;;;2.50;;
36551;SDS011;22559;54.176;12.102;2023-11-22T04:25:11;2.73;;;2.53;;
36551;SDS011;22559;54.176;12.102;2023-11-22T04:27:40;2.20;;;2.10;;
36551;SDS011;22559;54.176;12.102;2023-11-22T04:30:07;3.23;;;2.70;;
36551;SDS011;22559;54.176;12.102;2023-11-22T04:32:38;3.63;;;2.63;;
36551;SDS011;22559;54.176;12.102;2023-11-22T04:35:04;3.10;;;2.80;;
36551;SDS011;22559;54.176;12.102;2023-11-22T04:37:30;2.80;;;2.60;;
36551;SDS011;22559;54.176;12.102;2023-11-22T04:39:57;2.77;;;2.57;;
36551;SDS011;22559;54.176;12.102;2023-11-22T04:42:24;2.70;;;2.50;;
36551;SDS011;22559;54.176;12.102;2023-11-22T04:44:49;3.03;;;2.10;;
36551;SDS011;22559;54.176;12.102;2023-11-22T04:47:15;2.30;;;2.10;;
36551;SDS011;22559;54.176;12.102;2023-11-22T04:49:41;2.37;;;2.17;;
36551;SDS011;22559;54.176;12.102;2023-11-22T04:52:06;3.77;;;2.30;;
36551;SDS011;22559;54.176;12.102;2023-11-22T04:54:32;3.73;;;3.43;;
36551;SDS011;22559;54.176;12.102;2023-11-22T04:56:59;4.37;;;3.17;;
36551;SDS011;22559;54.176;12.102;2023-11-22T04:59:24;3.20;;;2.90;;
36551;SDS011;22559;54.176;12.102;2023-11-22T05:01:50;3.80;;;3.60;;
36551;SDS011;22559;54.176;12.102;2023-11-22T05:04:16;3.83;;;3.50;;
36551;SDS011;22559;54.176;12.102;2023-11-22T05:06:43;3.30;;;3.00;;
36551;SDS011;22559;54.176;12.102;2023-11-22T05:09:09;3.47;;;2.67;;
36551;SDS011;22559;54.176;12.102;2023-11-22T05:11:36;3.53;;;3.17;;
36551;SDS011;22559;54.176;12.102;2023-11-22T05:14:01;2.83;;;2.63;;
36551;SDS011;22559;54.176;12.102;2023-11-22T05:16:27;3.43;;;2.50;;
36551;SDS011;22559;54.176;12.102;2023-11-22T05:18:53;2.90;;;2.70;;
36551;SDS011;22559;54.176;12.102;2023-11-22T05:21:18;2.67;;;2.57;;
36551;SDS011;22559;54.176;12.102;2023-11-22T05:23:44;2.90;;;2.40;;
36551;SDS011;22559;54.176;12.102;2023-11-22T05:26:09;2.63;;;2.43;;
36551;SDS011;22559;54.176;12.102;2023-11-22T05:28:35;3.13;;;2.50;;
36551;SDS011;22559;54.176;12.102;2023-11-22T05:31:01;2.80;;;2.60;;
36551;SDS011;22559;54.176;12.102;2023-11-22T05:33:27;4.27;;;2.50;;
36551;SDS011;22559;54.176;12.102;2023-11-22T05:35:52;4.17;;;2.80;;
36551;SDS011;22559;54.176;12.102;2023-11-22T05:38:19;3.10;;;2.80;;
36551;SDS011;22559;54.176;12.102;2023-11-22T05:40:44;3.17;;;2.97;;
36551;SDS011;22559;54.176;12.102;2023-11-22T05:43:10;3.27;;;2.63;;
36551;SDS011;22559;54.176;12.102;2023-11-22T05:45:36;2.87;;;2.67;;
36551;SDS011;22559;54.176;12.102;2023-11-22T05:48:01;2.53;;;2.33;;
36551;SDS011;22559;54.176;12.102;2023-11-22T05:50:27;2.93;;;2.67;;
36551;SDS011;22559;54.176;12.102;2023-11-22T05:52:52;3.10;;;2.80;;
36551;SDS011;22559;54.176;12.102;2023-11-22T05:55:18;2.77;;;2.57;;
36551;SDS011;22559;54.176;12.102;2023-11-22T05:57:44;2.80;;;2.70;;
36551;SDS011;22559;54.176;12.102;2023-11-22T06:00:10;2.60;;;2.40;;
36551;SDS011;22559;54.176;12.102;2023-11-22T06:02:36;4.00;;;2.80;;
36551;SDS011;22559;54.176;12.102;2023-11-22T06:05:03;2.90;;;2.63;;
36551;SDS011;22559;54.176;12.102;2023-11-22T06:07:30;2.40;;;2.20;;
36551;SDS011;22559;54.176;12.102;2023-11-22T06:09:56;2.83;;;2.63;;
36551;SDS011;22559;54.176;12.102;2023-11-22T06:12:22;2.77;;;2.57;;
36551;SDS011;22559;54.176;12.102;2023-11-22T06:14:48;2.80;;;2.67;;
36551;SDS011;22559;54.176;12.102;2023-11-22T06:17:14;3.07;;;2.87;;
36551;SDS011;22559;54.176;12.102;2023-11-22T06:19:40;3.33;;;2.80;;
36551;SDS011;22559;54.176;12.102;2023-11-22T06:22:06;3.93;;;3.60;;
36551;SDS011;22559;54.176;12.102;2023-11-22T06:24:32;3.13;;;2.93;;
36551;SDS011;22559;54.176;12.102;2023-11-22T06:27:01;4.47;;;3.47;;
36551;SDS011;22559;54.176;12.102;2023-11-22T06:29:27;4.27;;;3.10;;
36551;SDS011;22559;54.176;12.102;2023-11-22T06:31:52;3.63;;;2.40;;
36551;SDS011;22559;54.176;12.102;2023-11-22T06:34:18;2.73;;;2.53;;
36551;SDS011;22559;54.176;12.102;2023-11-22T06:36:44;2.97;;;2.77;;
36551;SDS011;22559;54.176;12.102;2023-11-22T06:39:09;2.60;;;2.40;;
36551;SDS011;22559;54.176;12.102;2023-11-22T06:41:38;2.97;;;2.67;;
36551;SDS011;22559;54.176;12.102;2023-11-22T06:44:07;2.40;;;2.30;;
36551;SDS011;22559;54.176;12.102;2023-11-22T06:46:32;3.27;;;2.77;;
36551;SDS011;22559;54.176;12.102;2023-11-22T06:48:58;4.07;;;2.80;;
36551;SDS011;22559;54.176;12.102;2023-11-22T06:51:24;4.60;;;3.33;;
36551;SDS011;22559;54.176;12.102;2023-11-22T06:53:49;5.83;;;2.97;;
36551;SDS011;22559;54.176;12.102;2023-11-22T06:56:17;4.10;;;3.30;;
36551;SDS011;22559;54.176;12.102;2023-11-22T06:58:43;3.67;;;3.37;;
36551;SDS011;22559;54.176;12.102;2023-11-22T07:01:08;5.97;;;2.97;;
36551;SDS011;22559;54.176;12.102;2023-11-22T07:03:35;3.47;;;3.17;;
36551;SDS011;22559;54.176;12.102;2023-11-22T07:06:02;3.20;;;3.00;;
36551;SDS011;22559;54.176;12.102;2023-11-22T07:08:29;3.30;;;3.00;;
36551;SDS011;22559;54.176;12.102;2023-11-22T07:10:55;4.77;;;2.97;;
36551;SDS011;22559;54.176;12.102;2023-11-22T07:13:22;3.30;;;3.00;;
36551;SDS011;22559;54.176;12.102;2023-11-22T07:15:48;3.13;;;2.87;;
36551;SDS011;22559;54.176;12.102;2023-11-22T07:18:13;3.47;;;3.13;;
36551;SDS011;22559;54.176;12.102;2023-11-22T07:20:39;3.27;;;3.00;;
36551;SDS011;22559;54.176;12.102;2023-11-22T07:23:05;4.20;;;3.57;;
36551;SDS011;22559;54.176;12.102;2023-11-22T07:25:30;3.73;;;3.43;;
36551;SDS011;22559;54.176;12.102;2023-11-22T07:27:57;3.47;;;3.17;;
36551;SDS011;22559;54.176;12.102;2023-11-22T07:30:24;3.17;;;2.87;;
36551;SDS011;22559;54.176;12.102;2023-11-22T07:32:52;4.10;;;2.70;;
36551;SDS011;22559;54.176;12.102;2023-11-22T07:35:18;4.07;;;2.90;;
36551;SDS011;22559;54.176;12.102;2023-11-22T07:37:47;3.10;;;2.80;;
36551;SDS011;22559;54.176;12.102;2023-11-22T07:40:13;9.60;;;2.70;;
36551;SDS011;22559;54.176;12.102;2023-11-22T07:42:39;3.30;;;3.10;;
36551;SDS011;22559;54.176;12.102;2023-11-22T07:45:06;2.87;;;2.50;;
36551;SDS011;22559;54.176;12.102;2023-11-22T07:47:32;2.57;;;2.47;;
36551;SDS011;22559;54.176;12.102;2023-11-22T07:49:57;3.73;;;2.13;;
36551;SDS011;22559;54.176;12.102;2023-11-22T07:52:23;2.50;;;2.30;;
36551;SDS011;22559;54.176;12.102;2023-11-22T07:54:57;3.30;;;2.40;;
36551;SDS011;22559;54.176;12.102;2023-11-22T07:57:24;2.80;;;2.23;;
36551;SDS011;22559;54.176;12.102;2023-11-22T07:59:50;3.00;;;2.67;;
36551;SDS011;22559;54.176;12.102;2023-11-22T08:02:19;4.17;;;3.53;;
36551;SDS011;22559;54.176;12.102;2023-11-22T08:04:45;5.57;;;3.70;;
36551;SDS011;22559;54.176;12.102;2023-11-22T08:07:13;3.30;;;2.90;;
36551;SDS011;22559;54.176;12.102;2023-11-22T08:09:39;2.30;;;2.10;;
36551;SDS011;22559;54.176;12.102;2023-11-22T08:12:08;1.87;;;1.77;;
36551;SDS011;22559;54.176;12.102;2023-11-22T08:14:36;2.10;;;1.90;;
36551;SDS011;22559;54.176;12.102;2023-11-22T08:17:02;1.93;;;1.83;;
36551;SDS011;22559;54.176;12.102;2023-11-22T08:19:28;1.90;;;1.80;;
36551;SDS011;22559;54.176;12.102;2023-11-22T08:21:54;3.27;;;2.97;;
36551;SDS011;22559;54.176;12.102;2023-11-22T08:24:20;4.20;;;3.40;;
36551;SDS011;22559;54.176;12.102;2023-11-22T08:26:46;3.23;;;3.00;;
36551;SDS011;22559;54.176;12.102;2023-11-22T08:29:11;2.20;;;2.10;;
36551;SDS011;22559;54.176;12.102;2023-11-22T08:31:37;2.50;;;2.30;;
36551;SDS011;22559;54.176;12.102;2023-11-22T08:34:03;2.33;;;2.13;;
36551;SDS011;22559;54.176;12.102;2023-11-22T08:36:32;2.30;;;2.20;;
36551;SDS011;22559;54.176;12.102;2023-11-22T08:38:59;2.93;;;2.20;;
36551;SDS011;22559;54.176;12.102;2023-11-22T08:41:26;2.43;;;2.23;;
36551;SDS011;22559;54.176;12.102;2023-11-22T08:43:54;2.20;;;2.00;;
36551;SDS011;22559;54.176;12.102;2023-11-22T08:46:20;2.40;;;2.30;;
36551;SDS011;22559;54.176;12.102;2023-11-22T08:48:46;2.00;;;1.90;;
36551;SDS011;22559;54.176;12.102;2023-11-22T08:51:12;2.47;;;2.27;;
36551;SDS011;22559;54.176;12.102;2023-11-22T08:53:38;2.30;;;2.13;;
36551;SDS011;22559;54.176;12.102;2023-11-22T08:56:04;2.60;;;2.10;;
36551;SDS011;22559;54.176;12.102;2023-11-22T08:58:31;1.70;;;1.60;;
36551;SDS011;22559;54.176;12.102;2023-11-22T09:00:56;2.23;;;1.80;;
36551;SDS011;22559;54.176;12.102;2023-11-22T09:03:25;2.20;;;2.10;;
36551;SDS011;22559;54.176;12.102;2023-11-22T09:05:51;2.57;;;1.90;;
36551;SDS011;22559;54.176;12.102;2023-11-22T09:08:19;2.00;;;1.80;;
36551;SDS011;22559;54.176;12.102;2023-11-22T09:10:46;1.83;;;1.63;;
36551;SDS011;22559;54.176;12.102;2023-11-22T09:13:12;1.70;;;1.60;;
36551;SDS011;22559;54.176;12.102;2023-11-22T09:15:41;1.47;;;1.47;;
36551;SDS011;22559;54.176;12.102;2023-11-22T09:18:09;2.10;;;1.40;;
36551;SDS011;22559;54.176;12.102;2023-11-22T09:20:35;1.87;;;1.70;;
36551;SDS011;22559;54.176;12.102;2023-11-22T09:23:01;1.73;;;1.63;;
36551;SDS011;22559;54.176;12.102;2023-11-22T09:25:27;2.33;;;1.60;;
36551;SDS011;22559;54.176;12.102;2023-11-22T09:27:56;1.70;;;1.60;;
36551;SDS011;22559;54.176;12.102;2023-11-22T09:30:28;1.53;;;1.43;;
36551;SDS011;22559;54.176;12.102;2023-11-22T09:32:59;1.50;;;1.50;;
36551;SDS011;22559;54.176;12.102;2023-11-22T09:35:29;1.60;;;1.53;;
36551;SDS011;22559;54.176;12.102;2023-11-22T09:37:59;1.80;;;1.70;;
36551;SDS011;22559;54.176;12.102;2023-11-22T09:40:25;1.50;;;1.50;;
36551;SDS011;22559;54.176;12.102;2023-11-22T09:42:53;1.50;;;1.50;;
36551;SDS011;22559;54.176;12.102;2023-11-22T09:45:20;1.50;;;1.50;;
36551;SDS011;22559;54.176;12.102;2023-11-22T09:47:46;1.50;;;1.50;;
36551;SDS011;22559;54.176;12.102;2023-11-22T09:50:31;2.17;;;1.33;;
36551;SDS011;22559;54.176;12.102;2023-11-22T09:53:07;1.60;;;1.60;;
36551;SDS011;22559;54.176;12.102;2023-11-22T09:55:47;2.17;;;1.87;;
36551;SDS011;22559;54.176;12.102;2023-11-22T09:58:12;1.80;;;1.70;;
36551;SDS011;22559;54.176;12.102;2023-11-22T10:00:40;2.00;;;1.87;;
36551;SDS011;22559;54.176;12.102;2023-11-22T10:03:06;1.60;;;1.50;;
36551;SDS011;22559;54.176;12.102;2023-11-22T10:05:32;1.80;;;1.70;;
36551;SDS011;22559;54.176;12.102;2023-11-22T10:07:58;1.87;;;1.60;;
36551;SDS011;22559;54.176;12.102;2023-11-22T10:10:25;1.50;;;1.50;;
36551;SDS011;22559;54.176;12.102;2023-11-22T10:12:55;1.67;;;1.60;;
36551;SDS011;22559;54.176;12.102;2023-11-22T10:15:21;1.60;;;1.50;;
36551;SDS011;22559;54.176;12.102;2023-11-22T10:17:59;2.30;;;1.80;;
36551;SDS011;22559;54.176;12.102;2023-11-22T10:20:38;1.70;;;1.70;;
36551;SDS011;22559;54.176;12.102;2023-11-22T10:23:14;1.87;;;1.80;;
36551;SDS011;22559;54.176;12.102;2023-11-22T10:25:50;1.77;;;1.70;;
36551;SDS011;22559;54.176;12.102;2023-11-22T10:28:17;1.77;;;1.67;;
36551;SDS011;22559;54.176;12.102;2023-11-22T10:30:47;1.40;;;1.40;;
36551;SDS011;22559;54.176;12.102;2023-11-22T10:33:15;1.93;;;1.83;;
36551;SDS011;22559;54.176;12.102;2023-11-22T10:35:47;1.60;;;1.50;;
36551;SDS011;22559;54.176;12.102;2023-11-22T10:38:19;1.83;;;1.70;;
36551;SDS011;22559;54.176;12.102;2023-11-22T10:40:46;2.23;;;1.80;;
36551;SDS011;22559;54.176;12.102;2023-11-22T10:43:13;1.67;;;1.57;;
36551;SDS011;22559;54.176;12.102;2023-11-22T10:45:40;1.70;;;1.70;;
36551;SDS011;22559;54.176;12.102;2023-11-22T10:48:13;1.40;;;1.30;;
36551;SDS011;22559;54.176;12.102;2023-11-22T10:50:46;1.80;;;1.70;;
36551;SDS011;22559;54.176;12.102;2023-11-22T10:53:15;2.00;;;1.90;;
36551;SDS011;22559;54.176;12.102;2023-11-22T10:55:45;2.60;;;1.70;;
36551;SDS011;22559;54.176;12.102;2023-11-22T10:58:13;3.50;;;1.80;;
36551;SDS011;22559;54.176;12.102;2023-11-22T11:00:41;2.20;;;2.10;;
36551;SDS011;22559;54.176;12.102;2023-11-22T11:03:14;2.20;;;2.10;;
36551;SDS011;22559;54.176;12.102;2023-11-22T11:05:44;2.00;;;1.90;;
36551;SDS011;22559;54.176;12.102;2023-11-22T11:08:17;2.10;;;1.93;;
36551;SDS011;22559;54.176;12.102;2023-11-22T11:10:45;1.63;;;1.60;;
36551;SDS011;22559;54.176;12.102;2023-11-22T11:13:12;1.90;;;1.80;;
36551;SDS011;22559;54.176;12.102;2023-11-22T11:15:38;1.73;;;1.67;;
36551;SDS011;22559;54.176;12.102;2023-11-22T11:18:06;1.80;;;1.70;;
36551;SDS011;22559;54.176;12.102;2023-11-22T11:23:36;1.67;;;1.57;;
36551;SDS011;22559;54.176;12.102;2023-11-22T11:26:09;2.07;;;1.90;;
36551;SDS011;22559;54.176;12.102;2023-11-22T11:28:47;1.83;;;1.73;;
36551;SDS011;22559;54.176;12.102;2023-11-22T11:31:14;1.60;;;1.50;;
36551;SDS011;22559;54.176;12.102;2023-11-22T11:36:15;2.53;;;1.30;;
36551;SDS011;22559;54.176;12.102;2023-11-22T11:38:54;1.30;;;1.30;;
36551;SDS011;22559;54.176;12.102;2023-11-22T11:41:28;1.40;;;1.30;;
36551;SDS011;22559;54.176;12.102;2023-11-22T11:43:57;1.30;;;1.30;;
36551;SDS011;22559;54.176;12.102;2023-11-22T11:46:24;1.33;;;1.33;;
36551;SDS011;22559;54.176;12.102;2023-11-22T11:48:53;1.53;;;1.43;;
36551;SDS011;22559;54.176;12.102;2023-11-22T11:51:21;1.17;;;1.17;;
36551;SDS011;22559;54.176;12.102;2023-11-22T11:53:48;1.43;;;1.40;;
36551;SDS011;22559;54.176;12.102;2023-11-22T11:56:15;1.20;;;1.20;;
36551;SDS011;22559;54.176;12.102;2023-11-22T11:58:41;1.03;;;1.03;;
36551;SDS011;22559;54.176;12.102;2023-11-22T12:01:17;1.27;;;1.27;;
36551;SDS011;22559;54.176;12.102;2023-11-22T12:03:46;1.50;;;1.40;;
36551;SDS011;22559;54.176;12.102;2023-11-22T12:06:16;1.40;;;1.40;;
36551;SDS011;22559;54.176;12.102;2023-11-22T12:08:45;1.10;;;1.10;;
36551;SDS011;22559;54.176;12.102;2023-11-22T12:11:12;1.40;;;1.40;;
36551;SDS011;22559;54.176;12.102;2023-11-22T12:13:39;1.30;;;1.30;;
36551;SDS011;22559;54.176;12.102;2023-11-22T12:16:08;1.40;;;1.40;;
36551;SDS011;22559;54.176;12.102;2023-11-22T12:18:42;1.27;;;1.27;;
36551;SDS011;22559;54.176;12.102;2023-11-22T12:21:09;1.83;;;1.40;;
36551;SDS011;22559;54.176;12.102;2023-11-22T12:23:38;1.20;;;1.20;;
36551;SDS011;22559;54.176;12.102;2023-11-22T12:26:09;1.20;;;1.20;;
36551;SDS011;22559;54.176;12.102;2023-11-22T12:28:36;1.40;;;1.40;;
36551;SDS011;22559;54.176;12.102;2023-11-22T12:31:11;1.50;;;1.40;;
36551;SDS011;22559;54.176;12.102;2023-11-22T12:33:39;1.30;;;1.30;;
36551;SDS011;22559;54.176;12.102;2023-11-22T12:36:06;1.33;;;1.33;;
36551;SDS011;22559;54.176;12.102;2023-11-22T12:38:34;1.47;;;1.37;;
36551;SDS011;22559;54.176;12.102;2023-11-22T12:41:03;1.20;;;1.20;;
36551;SDS011;22559;54.176;12.102;2023-11-22T12:43:31;1.50;;;1.40;;
36551;SDS011;22559;54.176;12.102;2023-11-22T12:46:04;1.53;;;1.20;;
36551;SDS011;22559;54.176;12.102;2023-11-22T12:48:31;1.17;;;1.10;;
36551;SDS011;22559;54.176;12.102;2023-11-22T12:50:58;1.53;;;1.43;;
36551;SDS011;22559;54.176;12.102;2023-11-22T12:53:25;2.30;;;1.50;;
36551;SDS011;22559;54.176;12.102;2023-11-22T12:55:53;1.10;;;1.10;;
36551;SDS011;22559;54.176;12.102;2023-11-22T12:58:20;1.43;;;1.30;;
36551;SDS011;22559;54.176;12.102;2023-11-22T13:00:48;1.20;;;1.20;;
36551;SDS011;22559;54.176;12.102;2023-11-22T13:03:14;1.10;;;1.10;;
36551;SDS011;22559;54.176;12.102;2023-11-22T13:05:41;1.87;;;1.10;;
36551;SDS011;22559;54.176;12.102;2023-11-22T13:08:08;1.17;;;1.17;;
36551;SDS011;22559;54.176;12.102;2023-11-22T13:10:45;1.37;;;1.27;;
36551;SDS011;22559;54.176;12.102;2023-11-22T13:13:12;1.23;;;1.23;;
36551;SDS011;22559;54.176;12.102;2023-11-22T13:15:39;1.33;;;1.33;;
36551;SDS011;22559;54.176;12.102;2023-11-22T13:18:05;1.30;;;1.30;;
36551;SDS011;22559;54.176;12.102;2023-11-22T13:20:33;1.50;;;1.50;;
36551;SDS011;22559;54.176;12.102;2023-11-22T13:23:00;1.20;;;1.20;;
36551;SDS011;22559;54.176;12.102;2023-11-22T13:25:25;1.57;;;1.47;;
36551;SDS011;22559;54.176;12.102;2023-11-22T13:27:51;1.73;;;1.63;;
36551;SDS011;22559;54.176;12.102;2023-11-22T13:30:18;1.40;;;1.40;;
36551;SDS011;22559;54.176;12.102;2023-11-22T13:32:51;1.40;;;1.40;;
36551;SDS011;22559;54.176;12.102;2023-11-22T13:35:23;1.40;;;1.40;;
36551;SDS011;22559;54.176;12.102;2023-11-22T13:37:56;2.67;;;2.57;;
36551;SDS011;22559;54.176;12.102;2023-11-22T13:40:22;1.47;;;1.40;;
36551;SDS011;22559;54.176;12.102;2023-11-22T13:42:50;1.10;;;1.10;;
36551;SDS011;22559;54.176;12.102;2023-11-22T13:45:20;1.40;;;1.40;;
36551;SDS011;22559;54.176;12.102;2023-11-22T13:47:53;1.40;;;1.40;;
36551;SDS011;22559;54.176;12.102;2023-11-22T13:50:34;1.30;;;1.30;;
36551;SDS011;22559;54.176;12.102;2023-11-22T13:53:00;1.40;;;1.40;;
36551;SDS011;22559;54.176;12.102;2023-11-22T13:55:26;1.50;;;1.40;;
36551;SDS011;22559;54.176;12.102;2023-11-22T13:57:53;1.40;;;1.40;;
36551;SDS011;22559;54.176;12.102;2023-11-22T14:00:21;1.57;;;1.50;;
36551;SDS011;22559;54.176;12.102;2023-11-22T14:02:49;1.37;;;1.37;;
36551;SDS011;22559;54.176;12.102;2023-11-22T14:05:26;1.57;;;1.47;;
36551;SDS011;22559;54.176;12.102;2023-11-22T14:07:52;1.40;;;1.40;;
36551;SDS011;22559;54.176;12.102;2023-11-22T14:10:19;1.40;;;1.40;;
36551;SDS011;22559;54.176;12.102;2023-11-22T14:12:47;2.07;;;1.87;;
36551;SDS011;22559;54.176;12.102;2023-11-22T14:15:16;1.60;;;1.50;;
36551;SDS011;22559;54.176;12.102;2023-11-22T14:17:42;1.87;;;1.63;;
36551;SDS011;22559;54.176;12.102;2023-11-22T14:20:09;1.53;;;1.53;;
36551;SDS011;22559;54.176;12.102;2023-11-22T14:22:36;1.40;;;1.40;;
36551;SDS011;22559;54.176;12.102;2023-11-22T14:25:02;1.60;;;1.50;;
36551;SDS011;22559;54.176;12.102;2023-11-22T14:27:32;1.80;;;1.70;;
36551;SDS011;22559;54.176;12.102;2023-11-22T14:29:58;2.00;;;1.90;;
36551;SDS011;22559;54.176;12.102;2023-11-22T14:32:25;1.73;;;1.63;;
36551;SDS011;22559;54.176;12.102;2023-11-22T14:34:50;1.80;;;1.70;;
36551;SDS011;22559;54.176;12.102;2023-11-22T14:37:18;1.60;;;1.50;;
36551;SDS011;22559;54.176;12.102;2023-11-22T14:39:44;1.70;;;1.60;;